Panorama, New York
Current Conditions -  °F | °C
As of 1:54 AM on Sunday 21 Dec 2014 (Local Time) from KROC Reporting Station
Overcast Overcast  
Wind Chill: 29°   Ceiling: 2700
Heat Index: 29°   Visibility: 10mi
Dew Point: 24°   Wind: 3mph
Humidity: 82%   Direction: 230°SW
Pressure: 30.27"   Gusts: NA
Location:  43.1495°N, 77.5063°W
Report Text: KROC 210654Z 23003KT 10SM OVC027 M02/M04 A3027 RMK AO2 SLP260 T10171044
Loading
Personal Weather Stations






























Interactive Weather Map New forecast layout! Learn more

10-Day Weather Forecast

Advertisements
Track Severe Weather on mobile